KAMW/AMW METAR and TAF weather

Enter ICAO airport designator
Station Type Date Time Source
KAMW METAR 2019/06/26 21:53 UTC NOAA

KAMW 262153Z AUTO 12004KT 10SM CLR 29/18 A2999 RMK AO2 SLP148 T02890178


Station Type Date Time Source
KAMW Decoded METAR 2019/06/26 21:53 UTC NOAA

AMES MUNICIPAL AIRPORT, IA, United States (KAMW) 41-59N 93-37W 279M
Jun 26, 2019 - 05:53 PM EDT / 2019.06.26 2153 UTC
Wind: from the ESE (120 degrees) at 5 MPH (4 KT):0
Visibility: 10 mile(s):0
Sky conditions: clear
Temperature: 84.0 F (28.9 C)
Dew Point: 64.0 F (17.8 C)
Relative Humidity: 51%
Pressure (altimeter): 29.99 in. Hg (1015 hPa)
ob: KAMW 262153Z AUTO 12004KT 10SM CLR 29/18 A2999 RMK AO2 SLP148 T02890178
cycle: 22

Station Type Date Time Source
KAMW TAF UTC NOAA

Error!

Example: see airport list